Ploiesti, Romania
Current Conditions -  °F | °C
As of 2:00 PM on Sunday 21 Dec 2014 (Local Time) from LROP Reporting Station
Clear Clear  
Wind Chill: 39°   Ceiling: Unl
Heat Index: 43°   Visibility: 6mi
Dew Point: 39°   Wind: 6mph
Humidity: 87%   Direction: 240°WSW
Pressure: 30"   Gusts: NA
Location:  44.94°N, 26.03°E
Report Text: LROP 211100Z 24005KT CAVOK 06/04 Q1016 R08R/19//95R08L/19//95 NOSIG
Loading
Personal Weather Stations






























Interactive Weather Map New forecast layout! Learn more

10-Day Weather Forecast

Advertisements
Track Severe Weather on mobile